sensor_id;sensor_type;location;lat;lon;timestamp;temperature;humidity
2945;DHT22;1482;51.398;7.128;2022-11-20T00:02:24;0.40;90.00
2945;DHT22;1482;51.398;7.128;2022-11-20T00:04:49;0.50;91.40
2945;DHT22;1482;51.398;7.128;2022-11-20T00:07:15;0.50;87.20
2945;DHT22;1482;51.398;7.128;2022-11-20T00:09:40;0.60;76.60
2945;DHT22;1482;51.398;7.128;2022-11-20T00:12:06;0.70;74.30
2945;DHT22;1482;51.398;7.128;2022-11-20T00:14:32;0.70;66.30
2945;DHT22;1482;51.398;7.128;2022-11-20T00:16:57;0.80;59.40
2945;DHT22;1482;51.398;7.128;2022-11-20T00:19:23;0.80;59.70
2945;DHT22;1482;51.398;7.128;2022-11-20T00:21:48;0.80;64.20
2945;DHT22;1482;51.398;7.128;2022-11-20T00:24:16;0.90;70.30
2945;DHT22;1482;51.398;7.128;2022-11-20T00:26:42;0.90;66.10
2945;DHT22;1482;51.398;7.128;2022-11-20T00:29:09;0.90;49.60
2945;DHT22;1482;51.398;7.128;2022-11-20T00:31:35;0.90;28.20
2945;DHT22;1482;51.398;7.128;2022-11-20T00:34:00;0.90;23.60
2945;DHT22;1482;51.398;7.128;2022-11-20T00:36:28;0.90;23.00
2945;DHT22;1482;51.398;7.128;2022-11-20T00:38:56;0.90;24.10
2945;DHT22;1482;51.398;7.128;2022-11-20T00:41:22;0.90;32.20
2945;DHT22;1482;51.398;7.128;2022-11-20T00:43:48;0.90;41.20
2945;DHT22;1482;51.398;7.128;2022-11-20T00:46:16;0.90;42.60
2945;DHT22;1482;51.398;7.128;2022-11-20T00:48:42;0.90;49.10
2945;DHT22;1482;51.398;7.128;2022-11-20T00:51:07;1.00;58.80
2945;DHT22;1482;51.398;7.128;2022-11-20T00:53:33;1.00;55.80
2945;DHT22;1482;51.398;7.128;2022-11-20T00:56:01;1.00;55.40
2945;DHT22;1482;51.398;7.128;2022-11-20T00:58:31;1.10;40.70
2945;DHT22;1482;51.398;7.128;2022-11-20T01:01:05;1.10;23.60
2945;DHT22;1482;51.398;7.128;2022-11-20T01:03:33;1.10;8.30
2945;DHT22;1482;51.398;7.128;2022-11-20T01:06:11;0.80;8.00
2945;DHT22;1482;51.398;7.128;2022-11-20T01:08:38;0.80;21.60
2945;DHT22;1482;51.398;7.128;2022-11-20T01:11:07;0.90;29.40
2945;DHT22;1482;51.398;7.128;2022-11-20T01:13:34;1.00;35.20
2945;DHT22;1482;51.398;7.128;2022-11-20T01:16:33;1.10;37.00
2945;DHT22;1482;51.398;7.128;2022-11-20T01:19:02;1.20;23.40
2945;DHT22;1482;51.398;7.128;2022-11-20T01:21:34;1.20;17.00
2945;DHT22;1482;51.398;7.128;2022-11-20T01:24:00;1.20;14.60
2945;DHT22;1482;51.398;7.128;2022-11-20T01:26:31;1.20;18.20
2945;DHT22;1482;51.398;7.128;2022-11-20T01:28:58;1.30;39.80
2945;DHT22;1482;51.398;7.128;2022-11-20T01:31:33;1.30;62.00
2945;DHT22;1482;51.398;7.128;2022-11-20T01:34:04;1.30;99.90
2945;DHT22;1482;51.398;7.128;2022-11-20T01:36:32;1.40;99.90
2945;DHT22;1482;51.398;7.128;2022-11-20T01:38:59;1.40;99.90
2945;DHT22;1482;51.398;7.128;2022-11-20T01:41:27;1.10;99.90
2945;DHT22;1482;51.398;7.128;2022-11-20T01:44:15;1.10;99.90
2945;DHT22;1482;51.398;7.128;2022-11-20T01:47:02;1.20;99.90
2945;DHT22;1482;51.398;7.128;2022-11-20T01:49:45;1.30;64.90
2945;DHT22;1482;51.398;7.128;2022-11-20T01:52:18;1.40;47.10
2945;DHT22;1482;51.398;7.128;2022-11-20T01:55:00;1.40;49.80
2945;DHT22;1482;51.398;7.128;2022-11-20T01:57:27;1.40;41.60
2945;DHT22;1482;51.398;7.128;2022-11-20T02:00:00;1.50;38.80
2945;DHT22;1482;51.398;7.128;2022-11-20T02:02:27;1.50;42.80
2945;DHT22;1482;51.398;7.128;2022-11-20T02:04:54;1.50;64.00
2945;DHT22;1482;51.398;7.128;2022-11-20T02:07:23;1.60;65.90
2945;DHT22;1482;51.398;7.128;2022-11-20T02:09:48;1.70;73.40
2945;DHT22;1482;51.398;7.128;2022-11-20T02:12:14;1.70;79.40
2945;DHT22;1482;51.398;7.128;2022-11-20T02:15:00;1.80;92.10
2945;DHT22;1482;51.398;7.128;2022-11-20T02:17:26;1.70;99.90
2945;DHT22;1482;51.398;7.128;2022-11-20T02:19:52;1.80;99.90
2945;DHT22;1482;51.398;7.128;2022-11-20T02:22:31;2.00;99.90
2945;DHT22;1482;51.398;7.128;2022-11-20T02:25:02;2.10;99.90
2945;DHT22;1482;51.398;7.128;2022-11-20T02:27:29;2.10;99.90
2945;DHT22;1482;51.398;7.128;2022-11-20T02:30:03;2.30;99.90
2945;DHT22;1482;51.398;7.128;2022-11-20T02:32:33;2.30;99.90
2945;DHT22;1482;51.398;7.128;2022-11-20T02:35:06;2.10;74.70
2945;DHT22;1482;51.398;7.128;2022-11-20T02:37:33;1.90;50.40
2945;DHT22;1482;51.398;7.128;2022-11-20T02:40:00;1.80;49.10
2945;DHT22;1482;51.398;7.128;2022-11-20T02:42:26;1.80;80.00
2945;DHT22;1482;51.398;7.128;2022-11-20T02:44:51;2.00;56.40
2945;DHT22;1482;51.398;7.128;2022-11-20T02:47:17;1.90;54.20
2945;DHT22;1482;51.398;7.128;2022-11-20T02:49:42;1.80;43.00
2945;DHT22;1482;51.398;7.128;2022-11-20T02:52:08;1.90;52.30
2945;DHT22;1482;51.398;7.128;2022-11-20T02:54:33;2.00;46.80
2945;DHT22;1482;51.398;7.128;2022-11-20T02:56:59;2.00;47.90
2945;DHT22;1482;51.398;7.128;2022-11-20T02:59:24;2.00;49.80
2945;DHT22;1482;51.398;7.128;2022-11-20T03:01:50;2.10;49.30
2945;DHT22;1482;51.398;7.128;2022-11-20T03:04:15;2.20;45.60
2945;DHT22;1482;51.398;7.128;2022-11-20T03:06:41;2.30;45.20
2945;DHT22;1482;51.398;7.128;2022-11-20T03:09:06;2.30;46.70
2945;DHT22;1482;51.398;7.128;2022-11-20T03:11:32;2.30;56.20
2945;DHT22;1482;51.398;7.128;2022-11-20T03:13:57;2.40;41.40
2945;DHT22;1482;51.398;7.128;2022-11-20T03:16:23;2.40;43.30
2945;DHT22;1482;51.398;7.128;2022-11-20T03:18:51;2.30;43.80
2945;DHT22;1482;51.398;7.128;2022-11-20T03:21:17;2.40;56.10
2945;DHT22;1482;51.398;7.128;2022-11-20T03:23:42;2.40;45.70
2945;DHT22;1482;51.398;7.128;2022-11-20T03:26:09;2.50;52.60
2945;DHT22;1482;51.398;7.128;2022-11-20T03:28:35;2.50;53.90
2945;DHT22;1482;51.398;7.128;2022-11-20T03:31:08;2.50;55.20
2945;DHT22;1482;51.398;7.128;2022-11-20T03:33:34;2.60;54.00
2945;DHT22;1482;51.398;7.128;2022-11-20T03:36:05;2.60;71.00
2945;DHT22;1482;51.398;7.128;2022-11-20T03:38:31;2.70;90.00
2945;DHT22;1482;51.398;7.128;2022-11-20T03:41:18;2.80;61.50
2945;DHT22;1482;51.398;7.128;2022-11-20T03:43:48;2.70;64.70
2945;DHT22;1482;51.398;7.128;2022-11-20T03:46:14;2.80;72.40
2945;DHT22;1482;51.398;7.128;2022-11-20T03:48:39;2.80;70.40
2945;DHT22;1482;51.398;7.128;2022-11-20T03:51:14;2.80;80.30
2945;DHT22;1482;51.398;7.128;2022-11-20T03:53:41;2.80;72.30
2945;DHT22;1482;51.398;7.128;2022-11-20T03:56:07;2.80;72.90
2945;DHT22;1482;51.398;7.128;2022-11-20T03:58:34;2.80;81.70
2945;DHT22;1482;51.398;7.128;2022-11-20T04:01:12;2.90;77.00
2945;DHT22;1482;51.398;7.128;2022-11-20T04:03:39;2.70;44.00
2945;DHT22;1482;51.398;7.128;2022-11-20T04:06:28;2.70;57.40
2945;DHT22;1482;51.398;7.128;2022-11-20T04:08:54;2.80;51.50
2945;DHT22;1482;51.398;7.128;2022-11-20T04:11:25;2.80;40.50
2945;DHT22;1482;51.398;7.128;2022-11-20T04:13:53;2.80;36.80
2945;DHT22;1482;51.398;7.128;2022-11-20T04:16:20;2.80;38.20
2945;DHT22;1482;51.398;7.128;2022-11-20T04:18:46;2.80;42.70
2945;DHT22;1482;51.398;7.128;2022-11-20T04:21:12;2.90;27.20
2945;DHT22;1482;51.398;7.128;2022-11-20T04:23:38;2.90;27.50
2945;DHT22;1482;51.398;7.128;2022-11-20T04:26:11;2.90;34.40
2945;DHT22;1482;51.398;7.128;2022-11-20T04:28:38;2.90;40.60
2945;DHT22;1482;51.398;7.128;2022-11-20T04:31:04;3.00;42.30
2945;DHT22;1482;51.398;7.128;2022-11-20T04:33:30;3.00;37.70
2945;DHT22;1482;51.398;7.128;2022-11-20T04:36:00;3.00;37.80
2945;DHT22;1482;51.398;7.128;2022-11-20T04:38:27;3.10;40.00
2945;DHT22;1482;51.398;7.128;2022-11-20T04:40:59;3.10;44.60
2945;DHT22;1482;51.398;7.128;2022-11-20T04:43:24;3.10;47.60
2945;DHT22;1482;51.398;7.128;2022-11-20T04:45:51;3.20;47.60
2945;DHT22;1482;51.398;7.128;2022-11-20T04:48:17;3.30;47.10
2945;DHT22;1482;51.398;7.128;2022-11-20T04:50:42;3.30;40.00
2945;DHT22;1482;51.398;7.128;2022-11-20T04:53:08;3.40;39.30
2945;DHT22;1482;51.398;7.128;2022-11-20T04:55:33;3.40;33.70
2945;DHT22;1482;51.398;7.128;2022-11-20T04:57:59;3.40;37.90
2945;DHT22;1482;51.398;7.128;2022-11-20T05:00:24;3.50;30.90
2945;DHT22;1482;51.398;7.128;2022-11-20T05:02:50;3.40;28.20
2945;DHT22;1482;51.398;7.128;2022-11-20T05:05:15;3.40;33.20
2945;DHT22;1482;51.398;7.128;2022-11-20T05:07:41;3.50;25.10
2945;DHT22;1482;51.398;7.128;2022-11-20T05:10:06;3.50;16.50
2945;DHT22;1482;51.398;7.128;2022-11-20T05:12:32;3.50;22.10
2945;DHT22;1482;51.398;7.128;2022-11-20T05:14:58;3.50;13.40
2945;DHT22;1482;51.398;7.128;2022-11-20T05:17:23;3.50;3.40
2945;DHT22;1482;51.398;7.128;2022-11-20T05:19:48;3.50;1.00
2945;DHT22;1482;51.398;7.128;2022-11-20T05:22:14;3.50;1.00
2945;DHT22;1482;51.398;7.128;2022-11-20T05:24:40;3.50;1.00
2945;DHT22;1482;51.398;7.128;2022-11-20T05:27:05;3.50;1.00
2945;DHT22;1482;51.398;7.128;2022-11-20T05:29:31;3.60;1.00
2945;DHT22;1482;51.398;7.128;2022-11-20T05:31:56;3.60;1.00
2945;DHT22;1482;51.398;7.128;2022-11-20T05:34:22;3.60;1.00
2945;DHT22;1482;51.398;7.128;2022-11-20T05:36:47;3.60;1.00
2945;DHT22;1482;51.398;7.128;2022-11-20T05:39:13;3.60;1.00
2945;DHT22;1482;51.398;7.128;2022-11-20T05:41:38;3.60;1.00
2945;DHT22;1482;51.398;7.128;2022-11-20T05:44:04;3.60;1.00
2945;DHT22;1482;51.398;7.128;2022-11-20T05:46:29;3.60;1.00
2945;DHT22;1482;51.398;7.128;2022-11-20T05:48:56;3.70;1.00
2945;DHT22;1482;51.398;7.128;2022-11-20T05:51:22;3.70;1.00
2945;DHT22;1482;51.398;7.128;2022-11-20T05:53:48;3.70;1.00
2945;DHT22;1482;51.398;7.128;2022-11-20T05:56:16;3.70;1.00
2945;DHT22;1482;51.398;7.128;2022-11-20T05:58:43;3.80;1.00
2945;DHT22;1482;51.398;7.128;2022-11-20T06:01:18;3.80;1.00
2945;DHT22;1482;51.398;7.128;2022-11-20T06:03:44;3.80;1.00
2945;DHT22;1482;51.398;7.128;2022-11-20T06:06:13;3.80;1.00
2945;DHT22;1482;51.398;7.128;2022-11-20T06:08:39;3.80;1.00
2945;DHT22;1482;51.398;7.128;2022-11-20T06:11:06;3.70;1.00
2945;DHT22;1482;51.398;7.128;2022-11-20T06:13:32;3.70;1.00
2945;DHT22;1482;51.398;7.128;2022-11-20T06:15:57;3.70;1.00
2945;DHT22;1482;51.398;7.128;2022-11-20T06:18:25;3.70;1.00
2945;DHT22;1482;51.398;7.128;2022-11-20T06:20:59;3.60;1.00
2945;DHT22;1482;51.398;7.128;2022-11-20T06:23:25;3.70;1.00
2945;DHT22;1482;51.398;7.128;2022-11-20T06:25:52;3.60;1.00
2945;DHT22;1482;51.398;7.128;2022-11-20T06:28:18;3.50;1.00
2945;DHT22;1482;51.398;7.128;2022-11-20T06:30:46;3.50;1.00
2945;DHT22;1482;51.398;7.128;2022-11-20T06:33:12;3.50;1.00
2945;DHT22;1482;51.398;7.128;2022-11-20T06:35:37;3.50;1.00
2945;DHT22;1482;51.398;7.128;2022-11-20T06:38:03;3.50;1.00
2945;DHT22;1482;51.398;7.128;2022-11-20T06:40:28;3.50;1.00
2945;DHT22;1482;51.398;7.128;2022-11-20T06:42:54;3.50;1.00
2945;DHT22;1482;51.398;7.128;2022-11-20T06:45:20;3.50;1.00
2945;DHT22;1482;51.398;7.128;2022-11-20T06:47:46;3.50;1.00
2945;DHT22;1482;51.398;7.128;2022-11-20T06:50:12;3.50;1.00
2945;DHT22;1482;51.398;7.128;2022-11-20T06:52:38;3.40;1.00
2945;DHT22;1482;51.398;7.128;2022-11-20T06:55:04;3.40;1.00
2945;DHT22;1482;51.398;7.128;2022-11-20T06:57:30;3.40;1.00
2945;DHT22;1482;51.398;7.128;2022-11-20T06:59:55;3.40;1.00
2945;DHT22;1482;51.398;7.128;2022-11-20T07:02:21;3.40;1.00
2945;DHT22;1482;51.398;7.128;2022-11-20T07:04:46;3.40;1.00
2945;DHT22;1482;51.398;7.128;2022-11-20T07:07:12;3.40;1.00
2945;DHT22;1482;51.398;7.128;2022-11-20T07:09:37;3.40;1.00
2945;DHT22;1482;51.398;7.128;2022-11-20T07:12:03;3.40;1.00
2945;DHT22;1482;51.398;7.128;2022-11-20T07:14:28;3.40;1.00
2945;DHT22;1482;51.398;7.128;2022-11-20T07:16:54;3.40;1.00
2945;DHT22;1482;51.398;7.128;2022-11-20T07:19:20;3.40;1.00
2945;DHT22;1482;51.398;7.128;2022-11-20T07:21:45;3.40;1.00
2945;DHT22;1482;51.398;7.128;2022-11-20T07:24:11;3.40;1.00
2945;DHT22;1482;51.398;7.128;2022-11-20T07:26:36;3.40;1.00
2945;DHT22;1482;51.398;7.128;2022-11-20T07:29:02;3.50;1.00
2945;DHT22;1482;51.398;7.128;2022-11-20T07:31:27;3.50;1.00
2945;DHT22;1482;51.398;7.128;2022-11-20T07:33:53;3.50;1.00
2945;DHT22;1482;51.398;7.128;2022-11-20T07:36:18;3.50;1.00
2945;DHT22;1482;51.398;7.128;2022-11-20T07:38:44;3.50;1.00
2945;DHT22;1482;51.398;7.128;2022-11-20T07:41:09;3.50;1.00
2945;DHT22;1482;51.398;7.128;2022-11-20T07:43:35;3.50;1.00
2945;DHT22;1482;51.398;7.128;2022-11-20T07:46:00;3.60;1.00
2945;DHT22;1482;51.398;7.128;2022-11-20T07:48:26;3.60;1.00
2945;DHT22;1482;51.398;7.128;2022-11-20T07:50:55;3.70;1.00
2945;DHT22;1482;51.398;7.128;2022-11-20T07:53:21;3.70;1.00
2945;DHT22;1482;51.398;7.128;2022-11-20T07:55:47;3.80;1.00
2945;DHT22;1482;51.398;7.128;2022-11-20T07:58:13;3.80;1.00
2945;DHT22;1482;51.398;7.128;2022-11-20T08:00:39;3.90;1.00
2945;DHT22;1482;51.398;7.128;2022-11-20T08:03:05;4.00;1.00
2945;DHT22;1482;51.398;7.128;2022-11-20T08:05:31;4.00;1.00
2945;DHT22;1482;51.398;7.128;2022-11-20T08:07:57;4.10;1.00
2945;DHT22;1482;51.398;7.128;2022-11-20T08:10:23;4.20;1.00
2945;DHT22;1482;51.398;7.128;2022-11-20T08:12:50;4.40;1.00
2945;DHT22;1482;51.398;7.128;2022-11-20T08:15:34;4.80;1.00
2945;DHT22;1482;51.398;7.128;2022-11-20T08:18:10;5.00;1.00
2945;DHT22;1482;51.398;7.128;2022-11-20T08:20:37;6.10;1.00
2945;DHT22;1482;51.398;7.128;2022-11-20T08:23:05;9.00;1.00
2945;DHT22;1482;51.398;7.128;2022-11-20T08:25:32;12.00;1.00
2945;DHT22;1482;51.398;7.128;2022-11-20T08:27:59;14.50;1.00
2945;DHT22;1482;51.398;7.128;2022-11-20T08:30:25;16.20;1.00
2945;DHT22;1482;51.398;7.128;2022-11-20T08:32:51;17.40;1.00
2945;DHT22;1482;51.398;7.128;2022-11-20T08:35:17;18.00;1.00
2945;DHT22;1482;51.398;7.128;2022-11-20T08:37:46;18.90;1.00
2945;DHT22;1482;51.398;7.128;2022-11-20T08:40:12;19.80;1.00
2945;DHT22;1482;51.398;7.128;2022-11-20T08:42:45;19.50;1.00
2945;DHT22;1482;51.398;7.128;2022-11-20T08:45:10;18.50;1.00
2945;DHT22;1482;51.398;7.128;2022-11-20T08:47:36;17.40;1.00
2945;DHT22;1482;51.398;7.128;2022-11-20T08:50:01;15.70;1.00
2945;DHT22;1482;51.398;7.128;2022-11-20T08:52:27;13.60;1.00
2945;DHT22;1482;51.398;7.128;2022-11-20T08:54:52;12.90;1.00
2945;DHT22;1482;51.398;7.128;2022-11-20T08:57:18;11.70;1.00
2945;DHT22;1482;51.398;7.128;2022-11-20T08:59:43;10.70;1.00
2945;DHT22;1482;51.398;7.128;2022-11-20T09:02:09;10.00;1.00
2945;DHT22;1482;51.398;7.128;2022-11-20T09:04:34;9.10;1.00
2945;DHT22;1482;51.398;7.128;2022-11-20T09:07:00;8.80;1.00
2945;DHT22;1482;51.398;7.128;2022-11-20T09:09:26;8.30;1.00
2945;DHT22;1482;51.398;7.128;2022-11-20T09:11:51;8.30;1.00
2945;DHT22;1482;51.398;7.128;2022-11-20T09:14:17;8.10;1.00
2945;DHT22;1482;51.398;7.128;2022-11-20T09:16:45;8.00;1.00
2945;DHT22;1482;51.398;7.128;2022-11-20T09:19:11;7.80;1.00
2945;DHT22;1482;51.398;7.128;2022-11-20T09:21:36;7.70;1.00
2945;DHT22;1482;51.398;7.128;2022-11-20T09:24:02;7.50;1.00
2945;DHT22;1482;51.398;7.128;2022-11-20T09:26:29;7.40;1.00
2945;DHT22;1482;51.398;7.128;2022-11-20T09:28:55;7.30;1.00
2945;DHT22;1482;51.398;7.128;2022-11-20T09:31:25;7.20;1.00
2945;DHT22;1482;51.398;7.128;2022-11-20T09:33:51;7.20;1.00
2945;DHT22;1482;51.398;7.128;2022-11-20T09:36:17;7.10;1.00
2945;DHT22;1482;51.398;7.128;2022-11-20T09:38:47;7.00;1.00
2945;DHT22;1482;51.398;7.128;2022-11-20T09:51:52;6.80;1.00
2945;DHT22;1482;51.398;7.128;2022-11-20T09:54:19;6.70;1.00
2945;DHT22;1482;51.398;7.128;2022-11-20T09:56:55;6.70;1.00
2945;DHT22;1482;51.398;7.128;2022-11-20T09:59:39;6.70;1.00
2945;DHT22;1482;51.398;7.128;2022-11-20T10:07:48;6.70;1.00
2945;DHT22;1482;51.398;7.128;2022-11-20T10:10:44;6.60;1.00
2945;DHT22;1482;51.398;7.128;2022-11-20T10:22:03;7.20;1.00
2945;DHT22;1482;51.398;7.128;2022-11-20T10:24:48;7.40;1.00
2945;DHT22;1482;51.398;7.128;2022-11-20T10:30:12;7.80;1.00
2945;DHT22;1482;51.398;7.128;2022-11-20T10:32:45;8.00;1.00
2945;DHT22;1482;51.398;7.128;2022-11-20T10:39:32;8.20;1.00
2945;DHT22;1482;51.398;7.128;2022-11-20T10:41:27;8.20;1.00
2945;DHT22;1482;51.398;7.128;2022-11-20T10:44:15;8.00;1.00
2945;DHT22;1482;51.398;7.128;2022-11-20T10:47:02;7.90;1.00
2945;DHT22;1482;51.398;7.128;2022-11-20T10:49:30;7.70;1.00
2945;DHT22;1482;51.398;7.128;2022-11-20T10:54:59;7.50;1.00
2945;DHT22;1482;51.398;7.128;2022-11-20T11:00:14;7.40;1.00
2945;DHT22;1482;51.398;7.128;2022-11-20T11:02:51;7.40;1.00
2945;DHT22;1482;51.398;7.128;2022-11-20T11:06:12;7.40;1.00
2945;DHT22;1482;51.398;7.128;2022-11-20T11:08:35;7.40;1.00
2945;DHT22;1482;51.398;7.128;2022-11-20T11:11:24;7.30;1.00
2945;DHT22;1482;51.398;7.128;2022-11-20T11:13:51;7.30;1.00
2945;DHT22;1482;51.398;7.128;2022-11-20T11:16:25;7.20;1.00
2945;DHT22;1482;51.398;7.128;2022-11-20T11:18:51;7.20;1.00
2945;DHT22;1482;51.398;7.128;2022-11-20T11:21:25;7.10;1.00
2945;DHT22;1482;51.398;7.128;2022-11-20T11:24:03;7.20;1.00
2945;DHT22;1482;51.398;7.128;2022-11-20T11:26:29;7.10;1.00
2945;DHT22;1482;51.398;7.128;2022-11-20T11:28:58;7.00;1.00
2945;DHT22;1482;51.398;7.128;2022-11-20T11:31:26;7.00;1.00
2945;DHT22;1482;51.398;7.128;2022-11-20T11:33:52;7.00;1.00
2945;DHT22;1482;51.398;7.128;2022-11-20T11:36:22;7.10;1.00
2945;DHT22;1482;51.398;7.128;2022-11-20T11:38:51;7.10;1.00
2945;DHT22;1482;51.398;7.128;2022-11-20T11:41:24;7.10;1.00
2945;DHT22;1482;51.398;7.128;2022-11-20T11:43:53;7.10;1.00
2945;DHT22;1482;51.398;7.128;2022-11-20T11:46:39;7.30;1.00
2945;DHT22;1482;51.398;7.128;2022-11-20T11:51:46;7.30;1.00
2945;DHT22;1482;51.398;7.128;2022-11-20T11:54:19;7.30;1.00
2945;DHT22;1482;51.398;7.128;2022-11-20T11:56:47;7.30;1.00
2945;DHT22;1482;51.398;7.128;2022-11-20T12:02:04;7.10;1.00
2945;DHT22;1482;51.398;7.128;2022-11-20T12:04:43;6.90;1.00
2945;DHT22;1482;51.398;7.128;2022-11-20T12:10:02;7.10;1.00
2945;DHT22;1482;51.398;7.128;2022-11-20T12:12:42;7.10;1.00
2945;DHT22;1482;51.398;7.128;2022-11-20T12:15:20;7.10;1.00
2945;DHT22;1482;51.398;7.128;2022-11-20T12:17:47;7.10;1.00
2945;DHT22;1482;51.398;7.128;2022-11-20T12:20:20;7.10;1.00
2945;DHT22;1482;51.398;7.128;2022-11-20T12:25:52;7.10;1.00
2945;DHT22;1482;51.398;7.128;2022-11-20T12:28:48;7.00;1.00
2945;DHT22;1482;51.398;7.128;2022-11-20T12:31:34;7.00;1.00
2945;DHT22;1482;51.398;7.128;2022-11-20T12:43:04;6.70;1.00
2945;DHT22;1482;51.398;7.128;2022-11-20T12:46:22;6.60;1.00
2945;DHT22;1482;51.398;7.128;2022-11-20T12:51:58;6.60;1.00
2945;DHT22;1482;51.398;7.128;2022-11-20T12:57:24;6.40;1.00
2945;DHT22;1482;51.398;7.128;2022-11-20T13:00:07;6.40;1.00
2945;DHT22;1482;51.398;7.128;2022-11-20T13:02:44;6.40;1.00
2945;DHT22;1482;51.398;7.128;2022-11-20T13:07:40;6.20;1.00
2945;DHT22;1482;51.398;7.128;2022-11-20T13:10:16;5.90;1.00
2945;DHT22;1482;51.398;7.128;2022-11-20T13:12:47;6.00;1.00
2945;DHT22;1482;51.398;7.128;2022-11-20T13:17:58;6.00;1.00
2945;DHT22;1482;51.398;7.128;2022-11-20T13:20:24;6.20;1.00
2945;DHT22;1482;51.398;7.128;2022-11-20T13:22:51;6.20;1.00
2945;DHT22;1482;51.398;7.128;2022-11-20T13:27:52;6.40;1.00
2945;DHT22;1482;51.398;7.128;2022-11-20T13:30:20;6.40;1.00
2945;DHT22;1482;51.398;7.128;2022-11-20T13:32:56;6.40;1.00
2945;DHT22;1482;51.398;7.128;2022-11-20T13:35:31;6.20;1.00
2945;DHT22;1482;51.398;7.128;2022-11-20T13:38:09;6.30;1.00
2945;DHT22;1482;51.398;7.128;2022-11-20T13:40:37;6.30;1.00
2945;DHT22;1482;51.398;7.128;2022-11-20T13:43:28;6.30;1.00
2945;DHT22;1482;51.398;7.128;2022-11-20T13:45:56;6.30;1.00
2945;DHT22;1482;51.398;7.128;2022-11-20T13:48:24;6.30;1.00
2945;DHT22;1482;51.398;7.128;2022-11-20T13:57:12;6.30;1.00
2945;DHT22;1482;51.398;7.128;2022-11-20T13:59:57;6.30;1.00
2945;DHT22;1482;51.398;7.128;2022-11-20T14:02:26;6.40;1.00
2945;DHT22;1482;51.398;7.128;2022-11-20T14:04:54;6.40;1.00
2945;DHT22;1482;51.398;7.128;2022-11-20T14:07:26;6.40;1.00
2945;DHT22;1482;51.398;7.128;2022-11-20T14:09:57;6.40;1.00
2945;DHT22;1482;51.398;7.128;2022-11-20T14:12:31;6.50;1.00
2945;DHT22;1482;51.398;7.128;2022-11-20T14:14:57;6.40;1.00
2945;DHT22;1482;51.398;7.128;2022-11-20T14:17:33;6.40;1.00
2945;DHT22;1482;51.398;7.128;2022-11-20T14:20:02;6.40;1.00
2945;DHT22;1482;51.398;7.128;2022-11-20T14:22:29;6.30;1.00
2945;DHT22;1482;51.398;7.128;2022-11-20T14:25:04;6.30;1.00
2945;DHT22;1482;51.398;7.128;2022-11-20T14:27:34;6.20;1.00
2945;DHT22;1482;51.398;7.128;2022-11-20T14:30:02;6.30;1.00
2945;DHT22;1482;51.398;7.128;2022-11-20T14:32:29;6.10;1.00
2945;DHT22;1482;51.398;7.128;2022-11-20T14:35:01;6.20;1.00
2945;DHT22;1482;51.398;7.128;2022-11-20T14:37:31;6.20;1.00
2945;DHT22;1482;51.398;7.128;2022-11-20T14:39:58;6.20;1.00
2945;DHT22;1482;51.398;7.128;2022-11-20T14:42:28;6.20;1.00
2945;DHT22;1482;51.398;7.128;2022-11-20T14:44:58;6.20;1.00
2945;DHT22;1482;51.398;7.128;2022-11-20T14:47:29;6.10;1.00
2945;DHT22;1482;51.398;7.128;2022-11-20T14:49:57;6.00;1.00
2945;DHT22;1482;51.398;7.128;2022-11-20T14:52:24;6.00;1.00
2945;DHT22;1482;51.398;7.128;2022-11-20T14:54:58;6.10;1.00
2945;DHT22;1482;51.398;7.128;2022-11-20T14:57:32;6.10;1.00
2945;DHT22;1482;51.398;7.128;2022-11-20T15:00:24;6.00;1.00
2945;DHT22;1482;51.398;7.128;2022-11-20T15:02:51;6.00;1.00
2945;DHT22;1482;51.398;7.128;2022-11-20T15:05:22;5.70;1.00
2945;DHT22;1482;51.398;7.128;2022-11-20T15:08:04;5.80;1.00
2945;DHT22;1482;51.398;7.128;2022-11-20T15:10:30;5.70;1.00
2945;DHT22;1482;51.398;7.128;2022-11-20T15:13:00;5.70;8.90
2945;DHT22;1482;51.398;7.128;2022-11-20T15:15:36;5.60;11.80
2945;DHT22;1482;51.398;7.128;2022-11-20T15:18:04;5.60;26.00
2945;DHT22;1482;51.398;7.128;2022-11-20T15:20:31;5.60;37.90
2945;DHT22;1482;51.398;7.128;2022-11-20T15:22:58;5.70;54.60
2945;DHT22;1482;51.398;7.128;2022-11-20T15:25:23;5.50;99.60
2945;DHT22;1482;51.398;7.128;2022-11-20T15:27:53;5.50;99.90
2945;DHT22;1482;51.398;7.128;2022-11-20T15:30:20;5.50;99.90
2945;DHT22;1482;51.398;7.128;2022-11-20T15:32:47;5.40;99.90
2945;DHT22;1482;51.398;7.128;2022-11-20T15:35:14;5.40;99.90
2945;DHT22;1482;51.398;7.128;2022-11-20T15:37:40;5.30;99.90
2945;DHT22;1482;51.398;7.128;2022-11-20T15:40:07;5.40;99.90
2945;DHT22;1482;51.398;7.128;2022-11-20T15:42:33;5.40;99.90
2945;DHT22;1482;51.398;7.128;2022-11-20T15:44:59;5.40;99.90
2945;DHT22;1482;51.398;7.128;2022-11-20T15:47:31;5.20;99.90
2945;DHT22;1482;51.398;7.128;2022-11-20T15:49:57;5.20;99.90
2945;DHT22;1482;51.398;7.128;2022-11-20T15:52:23;5.10;99.90
2945;DHT22;1482;51.398;7.128;2022-11-20T15:54:48;5.00;99.90
2945;DHT22;1482;51.398;7.128;2022-11-20T15:57:14;5.10;99.90
2945;DHT22;1482;51.398;7.128;2022-11-20T15:59:39;5.00;99.90
2945;DHT22;1482;51.398;7.128;2022-11-20T16:02:14;5.10;99.90
2945;DHT22;1482;51.398;7.128;2022-11-20T16:04:39;5.20;99.90
2945;DHT22;1482;51.398;7.128;2022-11-20T16:07:05;5.30;99.90
2945;DHT22;1482;51.398;7.128;2022-11-20T16:09:31;5.30;99.90
2945;DHT22;1482;51.398;7.128;2022-11-20T16:11:56;5.30;99.90
2945;DHT22;1482;51.398;7.128;2022-11-20T16:14:25;5.30;99.90
2945;DHT22;1482;51.398;7.128;2022-11-20T16:17:09;5.30;99.90
2945;DHT22;1482;51.398;7.128;2022-11-20T16:19:35;5.40;99.90
2945;DHT22;1482;51.398;7.128;2022-11-20T16:22:00;5.30;99.90
2945;DHT22;1482;51.398;7.128;2022-11-20T16:24:26;5.30;99.90
2945;DHT22;1482;51.398;7.128;2022-11-20T16:26:55;5.50;99.90
2945;DHT22;1482;51.398;7.128;2022-11-20T16:29:21;5.60;99.90
2945;DHT22;1482;51.398;7.128;2022-11-20T16:31:46;5.70;99.90
2945;DHT22;1482;51.398;7.128;2022-11-20T16:34:12;5.70;99.90
2945;DHT22;1482;51.398;7.128;2022-11-20T16:36:41;5.80;99.90
2945;DHT22;1482;51.398;7.128;2022-11-20T16:39:07;5.90;99.90
2945;DHT22;1482;51.398;7.128;2022-11-20T16:41:34;5.90;99.90
2945;DHT22;1482;51.398;7.128;2022-11-20T16:44:08;6.00;99.90
2945;DHT22;1482;51.398;7.128;2022-11-20T16:46:34;6.10;99.90
2945;DHT22;1482;51.398;7.128;2022-11-20T16:49:02;6.10;99.90
2945;DHT22;1482;51.398;7.128;2022-11-20T16:51:30;6.10;99.90
2945;DHT22;1482;51.398;7.128;2022-11-20T16:53:56;6.10;99.90
2945;DHT22;1482;51.398;7.128;2022-11-20T16:56:24;6.10;99.90
2945;DHT22;1482;51.398;7.128;2022-11-20T16:58:50;6.20;1.00
2945;DHT22;1482;51.398;7.128;2022-11-20T17:01:19;6.10;99.90
2945;DHT22;1482;51.398;7.128;2022-11-20T17:03:56;6.20;1.00
2945;DHT22;1482;51.398;7.128;2022-11-20T17:06:33;6.20;1.00
2945;DHT22;1482;51.398;7.128;2022-11-20T17:08:59;6.20;99.90
2945;DHT22;1482;51.398;7.128;2022-11-20T17:11:25;6.30;99.90
2945;DHT22;1482;51.398;7.128;2022-11-20T17:13:51;6.40;99.90
2945;DHT22;1482;51.398;7.128;2022-11-20T17:16:18;6.40;99.90
2945;DHT22;1482;51.398;7.128;2022-11-20T17:18:44;6.40;99.90
2945;DHT22;1482;51.398;7.128;2022-11-20T17:21:10;6.30;99.90
2945;DHT22;1482;51.398;7.128;2022-11-20T17:23:38;6.30;99.90
2945;DHT22;1482;51.398;7.128;2022-11-20T17:26:12;6.20;99.90
2945;DHT22;1482;51.398;7.128;2022-11-20T17:28:39;6.30;99.90
2945;DHT22;1482;51.398;7.128;2022-11-20T17:31:10;6.30;99.90
2945;DHT22;1482;51.398;7.128;2022-11-20T17:33:37;6.30;99.90
2945;DHT22;1482;51.398;7.128;2022-11-20T17:36:05;6.40;99.90
2945;DHT22;1482;51.398;7.128;2022-11-20T17:38:31;6.20;99.90
2945;DHT22;1482;51.398;7.128;2022-11-20T17:41:11;6.10;99.90
2945;DHT22;1482;51.398;7.128;2022-11-20T17:43:37;5.90;1.00
2945;DHT22;1482;51.398;7.128;2022-11-20T17:46:05;6.00;1.00
2945;DHT22;1482;51.398;7.128;2022-11-20T17:48:31;6.00;1.00
2945;DHT22;1482;51.398;7.128;2022-11-20T17:51:01;6.10;1.00
2945;DHT22;1482;51.398;7.128;2022-11-20T17:53:28;6.10;1.00
2945;DHT22;1482;51.398;7.128;2022-11-20T17:55:57;6.00;1.00
2945;DHT22;1482;51.398;7.128;2022-11-20T17:58:41;6.00;1.00